Time;durP1;ratioP1;P1;durP2;ratioP2;P2;SDS_P1;SDS_P2;PMS_P1;PMS_P2;Temp;Humidity;BMP_temperature;BMP_pressure;BME280_temperature;BME280_humidity;BME280_pressure;Samples;Min_cycle;Max_cycle;Signal;HPM_P1;HPM_P2
2022/03/21 00:00:35;;;;;;;128.07;63.67;;;2.10;99.90;;;;;;5018089;28;20040;-79
2022/03/21 00:03:01;;;;;;;116.65;60.97;;;2.20;99.90;;;;;;5066990;28;20041;-79
2022/03/21 00:05:28;;;;;;;131.10;61.17;;;2.20;99.90;;;;;;5057652;28;20040;-79
2022/03/21 00:07:53;;;;;;;129.38;62.03;;;2.30;99.90;;;;;;5045118;28;20037;-78
2022/03/21 00:10:19;;;;;;;117.82;61.65;;;2.30;99.90;;;;;;5050416;28;20413;-78
2022/03/21 00:12:45;;;;;;;121.85;62.00;;;2.20;99.90;;;;;;5033399;28;20125;-79
2022/03/21 00:15:10;;;;;;;122.68;56.75;;;2.10;99.90;;;;;;5062412;28;20036;-79
2022/03/21 00:17:41;;;;;;;120.22;58.72;;;2.10;99.90;;;;;;5062071;28;20044;-79
2022/03/21 00:20:15;;;;;;;123.32;58.33;;;2.10;99.90;;;;;;5037125;28;20048;-79
2022/03/21 00:22:41;;;;;;;119.68;54.20;;;2.00;99.90;;;;;;5053410;28;20086;-79
2022/03/21 00:25:08;;;;;;;104.47;54.90;;;1.90;99.90;;;;;;5049935;28;20138;-79
2022/03/21 00:27:35;;;;;;;137.85;56.38;;;1.90;99.90;;;;;;5038828;28;20328;-79
2022/03/21 00:30:01;;;;;;;112.60;58.00;;;1.80;99.90;;;;;;5056951;28;20040;-79
2022/03/21 00:32:27;;;;;;;107.13;54.35;;;1.70;99.90;;;;;;5057089;28;20036;-79
2022/03/21 00:34:52;;;;;;;113.13;56.80;;;1.70;99.90;;;;;;5046055;28;20131;-79
2022/03/21 00:37:18;;;;;;;108.35;55.95;;;1.70;99.90;;;;;;5061051;28;20040;-79
2022/03/21 00:39:44;;;;;;;108.25;58.50;;;1.70;99.90;;;;;;5036062;28;20391;-79
2022/03/21 00:42:11;;;;;;;127.47;57.38;;;1.70;99.90;;;;;;5052627;28;20098;-79
2022/03/21 00:44:37;;;;;;;125.03;56.38;;;1.70;99.90;;;;;;5061951;28;20043;-79
2022/03/21 00:47:04;;;;;;;116.95;58.03;;;1.60;99.90;;;;;;5051121;28;20513;-79
2022/03/21 00:49:29;;;;;;;120.88;58.75;;;1.60;99.90;;;;;;5035068;28;20036;-79
2022/03/21 00:51:55;;;;;;;106.07;55.95;;;1.60;99.90;;;;;;5033966;28;20044;-79
2022/03/21 00:54:20;;;;;;;113.53;57.05;;;1.60;99.90;;;;;;5046981;28;20055;-78
2022/03/21 00:56:46;;;;;;;110.53;55.58;;;1.60;99.90;;;;;;5075110;28;20059;-79
2022/03/21 00:59:11;;;;;;;133.35;53.08;;;1.60;99.90;;;;;;5057506;28;20062;-79
2022/03/21 01:01:37;;;;;;;104.60;50.20;;;1.60;99.90;;;;;;5056971;28;20036;-79
2022/03/21 01:04:02;;;;;;;92.32;49.65;;;1.50;99.90;;;;;;5060376;28;20510;-78
2022/03/21 01:06:29;;;;;;;94.35;46.92;;;1.40;99.90;;;;;;5030879;28;20499;-79
2022/03/21 01:08:54;;;;;;;146.70;53.90;;;1.40;99.90;;;;;;5074406;28;20035;-78
2022/03/21 01:11:22;;;;;;;90.05;50.85;;;1.30;99.90;;;;;;5060553;28;20051;-79
2022/03/21 01:13:48;;;;;;;100.38;50.42;;;1.20;99.90;;;;;;5058733;28;20474;-79
2022/03/21 01:16:15;;;;;;;87.63;50.63;;;1.10;99.90;;;;;;5056470;28;20058;-79
2022/03/21 01:18:41;;;;;;;108.78;49.08;;;1.10;99.90;;;;;;5056481;28;20040;-78
2022/03/21 01:21:07;;;;;;;97.05;53.75;;;1.00;99.90;;;;;;5060195;28;20367;-78
2022/03/21 01:23:33;;;;;;;95.55;51.85;;;1.00;99.90;;;;;;5059412;28;20051;-78
2022/03/21 01:25:58;;;;;;;102.90;52.55;;;1.10;99.90;;;;;;5056606;28;20126;-79
2022/03/21 01:28:24;;;;;;;114.50;55.92;;;1.10;99.90;;;;;;5069687;28;20032;-79
2022/03/21 01:30:49;;;;;;;115.40;55.13;;;1.10;99.90;;;;;;5063336;28;20486;-79
2022/03/21 01:33:15;;;;;;;105.75;54.25;;;1.10;99.90;;;;;;5056396;28;20375;-78
2022/03/21 01:35:40;;;;;;;103.57;53.35;;;1.00;99.90;;;;;;5073924;28;20051;-79
2022/03/21 01:38:06;;;;;;;102.70;48.63;;;1.00;99.90;;;;;;5058154;28;20084;-80
2022/03/21 01:40:31;;;;;;;106.00;52.72;;;1.00;99.90;;;;;;5059848;28;20052;-79
2022/03/21 01:42:57;;;;;;;103.25;53.30;;;0.90;99.90;;;;;;5059365;28;20082;-79
2022/03/21 01:45:28;;;;;;;106.97;53.97;;;0.90;99.90;;;;;;5064884;28;20474;-79
2022/03/21 01:47:54;;;;;;;107.65;53.50;;;0.90;99.90;;;;;;5045437;28;20038;-79
2022/03/21 01:50:20;;;;;;;224.45;58.03;;;0.80;99.90;;;;;;5059815;28;20032;-79
2022/03/21 01:52:46;;;;;;;109.60;53.97;;;0.80;99.90;;;;;;5059510;28;20036;-79
2022/03/21 01:57:59;;;;;;;103.40;51.95;;;0.70;99.90;;;;;;5061411;28;20051;-79
2022/03/21 02:00:25;;;;;;;98.85;51.95;;;0.60;99.90;;;;;;5058917;28;20036;-79
2022/03/21 02:02:51;;;;;;;117.53;55.95;;;0.60;99.90;;;;;;5059110;28;20031;-79
2022/03/21 02:05:17;;;;;;;116.07;55.97;;;0.60;99.90;;;;;;5051942;28;20070;-79
2022/03/21 02:07:43;;;;;;;117.05;55.38;;;0.60;99.90;;;;;;5045414;28;20028;-79
2022/03/21 02:10:09;;;;;;;167.07;57.53;;;0.50;99.90;;;;;;5030164;28;20518;-79
2022/03/21 02:12:35;;;;;;;244.68;59.08;;;0.60;99.90;;;;;;5035571;28;20037;-81
2022/03/21 02:15:02;;;;;;;141.98;53.83;;;0.50;99.90;;;;;;5019652;28;20043;-80
2022/03/21 02:17:29;;;;;;;132.45;55.60;;;0.50;99.90;;;;;;5038055;28;20036;-79
2022/03/21 02:19:57;;;;;;;128.85;53.78;;;0.50;99.90;;;;;;5059213;28;20395;-80
2022/03/21 02:22:52;;;;;;;124.80;52.67;;;0.40;99.90;;;;;;5026047;28;20461;-79
2022/03/21 02:25:27;;;;;;;119.88;56.28;;;0.40;99.90;;;;;;5035778;28;20041;-79
2022/03/21 02:27:56;;;;;;;123.57;55.03;;;0.30;99.90;;;;;;5078059;28;20111;-79
2022/03/21 02:30:25;;;;;;;133.50;60.63;;;0.40;99.90;;;;;;5075526;28;20489;-79
2022/03/21 02:32:51;;;;;;;135.88;58.80;;;0.40;99.90;;;;;;5058778;28;20036;-79
2022/03/21 02:35:17;;;;;;;139.32;57.85;;;0.50;99.90;;;;;;5049615;28;20509;-79
2022/03/21 02:37:46;;;;;;;139.48;58.70;;;0.50;99.90;;;;;;5027418;28;20044;-78
2022/03/21 02:40:11;;;;;;;134.15;59.20;;;0.60;99.90;;;;;;5075709;28;20040;-79
2022/03/21 02:42:37;;;;;;;138.82;61.00;;;0.60;99.90;;;;;;5074811;28;20040;-79
2022/03/21 02:45:04;;;;;;;165.73;62.42;;;0.60;99.90;;;;;;5075334;28;20123;-79
2022/03/21 02:47:30;;;;;;;152.40;58.28;;;0.60;99.90;;;;;;5045151;28;20170;-79
2022/03/21 02:49:58;;;;;;;165.73;62.33;;;0.70;99.90;;;;;;5050357;28;20466;-79
2022/03/21 02:52:26;;;;;;;146.77;62.05;;;0.60;99.90;;;;;;5035261;28;20153;-79
2022/03/21 02:54:51;;;;;;;157.73;61.30;;;0.60;99.90;;;;;;5018568;28;20160;-79
2022/03/21 02:57:17;;;;;;;155.90;61.83;;;0.60;99.90;;;;;;5018498;28;20132;-79
2022/03/21 02:59:42;;;;;;;147.40;58.40;;;0.60;99.90;;;;;;5071976;28;20036;-79
2022/03/21 03:02:09;;;;;;;155.15;59.28;;;0.60;99.90;;;;;;5038198;28;20536;-80
2022/03/21 03:04:35;;;;;;;167.60;61.40;;;0.60;99.90;;;;;;5055030;28;20044;-79
2022/03/21 03:07:01;;;;;;;159.13;60.58;;;0.60;99.90;;;;;;5037900;28;20087;-79
2022/03/21 03:09:26;;;;;;;156.60;59.40;;;0.60;99.90;;;;;;5071316;28;20036;-80
2022/03/21 03:11:52;;;;;;;152.88;58.67;;;0.60;99.90;;;;;;5057188;28;20093;-79
2022/03/21 03:14:17;;;;;;;157.20;60.45;;;0.60;99.90;;;;;;5073624;28;20043;-79
2022/03/21 03:16:43;;;;;;;138.68;55.58;;;0.50;99.90;;;;;;5062832;28;20441;-79
2022/03/21 03:19:08;;;;;;;146.98;56.17;;;0.50;99.90;;;;;;5044054;28;20127;-80
2022/03/21 03:21:37;;;;;;;138.95;57.00;;;0.50;99.90;;;;;;5054228;28;20036;-79
2022/03/21 03:24:03;;;;;;;138.55;55.78;;;0.40;99.90;;;;;;5037763;28;20051;-79
2022/03/21 03:26:29;;;;;;;132.70;56.40;;;0.50;99.90;;;;;;5044014;28;20028;-79
2022/03/21 03:28:55;;;;;;;155.35;57.40;;;0.50;99.90;;;;;;5044698;28;20093;-80
2022/03/21 03:31:21;;;;;;;144.52;56.65;;;0.50;99.90;;;;;;5054701;28;20066;-79
2022/03/21 03:33:48;;;;;;;148.65;55.00;;;0.50;99.90;;;;;;5037480;28;20028;-79
2022/03/21 03:36:17;;;;;;;148.18;56.17;;;0.50;99.90;;;;;;5034393;28;20033;-79
2022/03/21 03:38:44;;;;;;;156.60;56.55;;;0.50;99.90;;;;;;5038463;28;20040;-80
2022/03/21 03:41:10;;;;;;;153.13;57.45;;;0.50;99.90;;;;;;5057572;28;20044;-79
2022/03/21 03:43:36;;;;;;;154.55;57.35;;;0.50;99.90;;;;;;5057434;28;20448;-79
2022/03/21 03:46:03;;;;;;;154.48;57.42;;;0.50;99.90;;;;;;5057493;28;20051;-79
2022/03/21 03:48:28;;;;;;;155.52;58.08;;;0.60;99.90;;;;;;5049081;28;20467;-79
2022/03/21 03:50:57;;;;;;;159.07;56.85;;;0.60;99.90;;;;;;5053692;28;20315;-79
2022/03/21 03:53:23;;;;;;;161.10;57.40;;;0.60;99.90;;;;;;5037314;28;20043;-79
2022/03/21 03:55:49;;;;;;;156.77;54.95;;;0.70;99.90;;;;;;5054152;28;20044;-79
2022/03/21 03:58:15;;;;;;;168.90;58.55;;;0.70;99.90;;;;;;5043419;28;20498;-79
2022/03/21 04:00:40;;;;;;;155.15;57.47;;;0.70;99.90;;;;;;5057240;28;20035;-79
2022/03/21 04:05:50;;;;;;;140.80;54.47;;;0.80;99.90;;;;;;5053675;28;20078;-79
2022/03/21 04:08:17;;;;;;;143.27;54.15;;;0.70;99.90;;;;;;5042820;28;20067;-79
2022/03/21 04:10:42;;;;;;;151.98;55.25;;;0.70;99.90;;;;;;5057073;28;20047;-79
2022/03/21 04:13:08;;;;;;;148.88;54.50;;;0.70;99.90;;;;;;5055285;28;20039;-80
2022/03/21 04:15:33;;;;;;;139.80;52.35;;;0.70;99.90;;;;;;5037221;28;20079;-79
2022/03/21 04:18:07;;;;;;;127.60;52.28;;;0.60;99.90;;;;;;5057124;28;20036;-79
2022/03/21 04:20:33;;;;;;;141.50;52.85;;;0.60;99.90;;;;;;5042189;28;20041;-80
2022/03/21 04:23:00;;;;;;;133.27;51.30;;;0.50;99.90;;;;;;5016837;28;20090;-79
2022/03/21 04:25:26;;;;;;;119.57;49.70;;;0.50;99.90;;;;;;5067104;28;20564;-79
2022/03/21 04:27:52;;;;;;;124.45;49.92;;;0.50;99.90;;;;;;5022362;28;20040;-79
2022/03/21 04:30:18;;;;;;;121.68;50.45;;;0.50;99.90;;;;;;5043381;28;20406;-79
2022/03/21 04:32:44;;;;;;;121.60;47.17;;;0.40;99.90;;;;;;5053476;28;20399;-79
2022/03/21 04:35:10;;;;;;;118.72;50.03;;;0.40;99.90;;;;;;5036935;28;20037;-79
2022/03/21 04:37:37;;;;;;;138.85;51.85;;;0.40;99.90;;;;;;5053182;28;20036;-79
2022/03/21 04:40:03;;;;;;;133.65;50.58;;;0.40;99.90;;;;;;5056831;28;20062;-79
2022/03/21 04:42:29;;;;;;;152.88;50.38;;;0.40;99.90;;;;;;5056999;28;20036;-79
2022/03/21 04:44:54;;;;;;;150.02;51.78;;;0.40;99.90;;;;;;5056644;28;20559;-80
2022/03/21 04:47:21;;;;;;;152.15;52.15;;;0.40;99.90;;;;;;5073650;28;20137;-79
2022/03/21 04:49:47;;;;;;;162.45;53.72;;;0.50;99.90;;;;;;5038354;28;20041;-80
2022/03/21 04:52:13;;;;;;;155.10;54.53;;;0.50;99.90;;;;;;5053278;28;20060;-80
2022/03/21 04:54:41;;;;;;;160.23;51.20;;;0.40;99.90;;;;;;5036536;28;20040;-79
2022/03/21 04:57:08;;;;;;;146.68;51.97;;;0.50;99.90;;;;;;5036859;28;20068;-80
2022/03/21 04:59:34;;;;;;;145.07;51.25;;;0.50;99.90;;;;;;5052512;28;20040;-79
2022/03/21 05:02:00;;;;;;;242.75;51.50;;;0.50;99.90;;;;;;5073273;28;20123;-79
2022/03/21 05:04:26;;;;;;;182.45;49.53;;;0.60;99.90;;;;;;5056370;28;20555;-79
2022/03/21 05:06:54;;;;;;;248.82;49.50;;;0.50;99.90;;;;;;5061460;28;20036;-79
2022/03/21 05:09:20;;;;;;;123.15;44.85;;;0.40;99.90;;;;;;5066735;28;20063;-80
2022/03/21 05:11:45;;;;;;;111.97;46.13;;;0.20;99.90;;;;;;5056357;28;20123;-80
2022/03/21 05:14:11;;;;;;;119.25;45.97;;;0.10;99.90;;;;;;5054255;28;20547;-79
2022/03/21 05:16:36;;;;;;;108.38;44.40;;;0.10;99.90;;;;;;5037055;28;20036;-79
2022/03/21 05:19:03;;;;;;;115.72;46.45;;;0.10;99.90;;;;;;5047543;28;20040;-80
2022/03/21 05:21:28;;;;;;;113.15;45.53;;;0.20;99.90;;;;;;5056506;28;20055;-79
2022/03/21 05:32:06;;;;;;;104.35;43.42;;;0.20;99.90;;;;;;5052874;28;20102;-79
2022/03/21 05:37:17;;;;;;;123.47;45.65;;;0.10;99.90;;;;;;5056614;28;20071;-79
2022/03/21 05:42:27;;;;;;;124.65;46.20;;;0.10;99.90;;;;;;5056716;28;20445;-79
2022/03/21 05:44:53;;;;;;;104.90;45.58;;;0.10;99.90;;;;;;5039579;28;20040;-79
2022/03/21 05:47:19;;;;;;;90.28;42.15;;;0.00;99.90;;;;;;5039772;28;20573;-79
2022/03/21 05:49:44;;;;;;;88.75;40.72;;;0.00;99.90;;;;;;5055312;28;20068;-80
2022/03/21 05:52:10;;;;;;;90.38;39.95;;;0.00;99.90;;;;;;5048980;28;20072;-79
2022/03/21 05:54:36;;;;;;;84.68;38.17;;;0.00;99.90;;;;;;5056479;28;20067;-79
2022/03/21 05:57:02;;;;;;;82.10;37.53;;;-0.10;99.90;;;;;;5039638;28;20086;-79
2022/03/21 06:02:12;;;;;;;74.50;38.15;;;-0.10;99.90;;;;;;5066468;28;20428;-79
2022/03/21 06:04:37;;;;;;;75.70;34.83;;;0.00;99.90;;;;;;5043511;28;20033;-78
2022/03/21 06:07:03;;;;;;;77.80;36.28;;;0.00;99.90;;;;;;5058155;28;20517;-78
2022/03/21 06:09:28;;;;;;;59.90;33.92;;;0.00;99.90;;;;;;5067039;28;20048;-80
2022/03/21 06:11:55;;;;;;;63.55;34.22;;;0.00;99.90;;;;;;5067725;28;20032;-79
2022/03/21 06:14:21;;;;;;;71.93;35.00;;;0.00;99.90;;;;;;5040164;28;20615;-78
2022/03/21 06:16:47;;;;;;;86.68;34.33;;;0.00;99.90;;;;;;5053388;28;20149;-78
2022/03/21 06:19:13;;;;;;;65.95;32.17;;;-0.10;99.90;;;;;;5054559;28;20040;-78
2022/03/21 06:21:39;;;;;;;63.88;33.03;;;-0.10;99.90;;;;;;5038927;28;20123;-77
2022/03/21 06:24:05;;;;;;;55.05;34.03;;;-0.10;99.90;;;;;;5042903;28;20156;-78
2022/03/21 06:26:31;;;;;;;58.47;32.78;;;-0.20;99.90;;;;;;5054546;28;20040;-77
2022/03/21 06:28:56;;;;;;;66.45;35.08;;;-0.10;99.90;;;;;;5032730;28;20039;-78
2022/03/21 06:31:22;;;;;;;64.35;34.17;;;-0.10;99.90;;;;;;5036446;28;20032;-78
2022/03/21 06:33:47;;;;;;;72.68;36.75;;;0.00;99.90;;;;;;5055290;28;20086;-78
2022/03/21 06:36:14;;;;;;;71.38;36.58;;;0.00;99.90;;;;;;5038873;28;20036;-78
2022/03/21 06:38:40;;;;;;;74.85;37.60;;;0.10;99.90;;;;;;5054312;28;20127;-77
2022/03/21 06:41:06;;;;;;;71.47;35.95;;;0.20;99.90;;;;;;5051810;28;20128;-77
2022/03/21 06:43:32;;;;;;;73.85;36.92;;;0.30;99.90;;;;;;5053128;28;20047;-77
2022/03/21 06:45:58;;;;;;;69.35;36.65;;;0.30;99.90;;;;;;5035117;28;20044;-78
2022/03/21 06:48:25;;;;;;;78.05;38.63;;;0.30;99.90;;;;;;5034574;28;20503;-77
2022/03/21 06:50:55;;;;;;;77.70;39.50;;;0.40;99.90;;;;;;5024993;28;20494;-77
2022/03/21 06:53:21;;;;;;;73.85;39.92;;;0.40;99.90;;;;;;5052997;28;20522;-77
2022/03/21 06:55:47;;;;;;;78.25;39.05;;;0.50;99.90;;;;;;5038417;28;20047;-78
2022/03/21 06:58:14;;;;;;;81.03;39.75;;;0.60;99.90;;;;;;5054695;28;20032;-77
2022/03/21 07:00:40;;;;;;;87.82;40.67;;;0.60;99.90;;;;;;5038286;28;20041;-77
2022/03/21 07:03:08;;;;;;;86.50;40.20;;;0.70;99.90;;;;;;5031389;28;20437;-77
2022/03/21 07:05:36;;;;;;;89.05;38.47;;;0.70;99.90;;;;;;5051132;28;20036;-77
2022/03/21 07:08:03;;;;;;;87.28;40.92;;;0.80;99.90;;;;;;5061044;28;20032;-77
2022/03/21 07:10:28;;;;;;;93.47;40.50;;;0.90;99.90;;;;;;5029257;28;20082;-79
2022/03/21 07:12:54;;;;;;;90.22;38.65;;;0.90;99.90;;;;;;5034636;28;20441;-78
2022/03/21 07:15:20;;;;;;;99.22;41.15;;;1.00;99.90;;;;;;5051761;28;20067;-78
2022/03/21 07:17:45;;;;;;;124.13;41.78;;;1.10;99.90;;;;;;5054301;28;20067;-78
2022/03/21 07:20:12;;;;;;;181.93;42.95;;;1.10;99.90;;;;;;5037715;28;20068;-78
2022/03/21 07:22:38;;;;;;;345.65;52.25;;;1.10;99.90;;;;;;5054519;28;20494;-78
2022/03/21 07:25:06;;;;;;;97.15;42.63;;;1.20;99.90;;;;;;5054531;28;20040;-77
2022/03/21 07:27:31;;;;;;;99.88;43.30;;;1.30;99.90;;;;;;5046095;28;20044;-77
2022/03/21 07:29:57;;;;;;;103.20;43.50;;;1.40;99.90;;;;;;5031001;28;20032;-77
2022/03/21 07:32:22;;;;;;;121.50;48.28;;;1.60;99.90;;;;;;5029302;28;20044;-79
2022/03/21 07:34:48;;;;;;;118.00;46.83;;;1.80;99.90;;;;;;5054439;28;20430;-78
2022/03/21 07:37:13;;;;;;;134.95;47.35;;;1.90;99.90;;;;;;5037746;28;20483;-78
2022/03/21 07:39:39;;;;;;;116.80;45.88;;;2.10;99.90;;;;;;5037970;28;20411;-78
2022/03/21 07:42:07;;;;;;;115.20;47.63;;;2.20;99.90;;;;;;5054018;28;20044;-79
2022/03/21 07:47:20;;;;;;;126.03;46.88;;;2.40;99.90;;;;;;5053966;28;20106;-79
2022/03/21 07:49:46;;;;;;;118.30;46.47;;;2.60;99.90;;;;;;5037505;28;20495;-79
2022/03/21 07:52:12;;;;;;;127.32;46.47;;;2.70;99.90;;;;;;5054233;28;20032;-79
2022/03/21 07:54:39;;;;;;;138.10;48.00;;;2.90;99.90;;;;;;5037510;28;20101;-78
2022/03/21 07:57:05;;;;;;;127.95;46.30;;;3.10;99.90;;;;;;5053976;28;20044;-79
2022/03/21 07:59:31;;;;;;;140.80;48.65;;;3.20;99.90;;;;;;5037177;28;20037;-79
2022/03/21 08:01:58;;;;;;;156.05;50.45;;;3.40;99.90;;;;;;5053980;28;20040;-78
2022/03/21 08:04:23;;;;;;;132.68;46.30;;;3.60;99.90;;;;;;5037289;28;20115;-78
2022/03/21 08:06:49;;;;;;;140.48;46.47;;;3.80;99.90;;;;;;5053992;28;20068;-78
2022/03/21 08:09:15;;;;;;;157.80;51.40;;;3.90;99.90;;;;;;5037552;28;20046;-78
2022/03/21 08:11:40;;;;;;;149.63;49.60;;;4.10;99.90;;;;;;5053769;28;20116;-78
2022/03/21 08:14:07;;;;;;;151.82;48.03;;;4.20;99.90;;;;;;5053816;28;20040;-79
2022/03/21 08:16:32;;;;;;;134.65;46.42;;;4.40;99.90;;;;;;5037342;28;20058;-79
2022/03/21 08:18:58;;;;;;;143.73;47.33;;;4.50;99.90;;;;;;5037486;28;20127;-79
2022/03/21 08:21:24;;;;;;;124.35;45.67;;;4.60;99.90;;;;;;5037270;28;20048;-79
2022/03/21 08:23:50;;;;;;;122.07;45.55;;;4.80;99.90;;;;;;5037467;28;20490;-79
2022/03/21 08:26:16;;;;;;;132.65;46.85;;;5.00;99.90;;;;;;5053886;28;20045;-79
2022/03/21 08:28:45;;;;;;;129.88;46.90;;;5.10;99.90;;;;;;5053855;28;20048;-79
2022/03/21 08:31:13;;;;;;;114.32;44.88;;;5.30;99.90;;;;;;5053733;28;20072;-79
2022/03/21 08:33:39;;;;;;;110.00;44.85;;;5.30;99.90;;;;;;5037141;28;20498;-79
2022/03/21 08:36:04;;;;;;;109.18;45.20;;;5.50;99.90;;;;;;5053643;28;20040;-79
2022/03/21 08:38:30;;;;;;;106.88;43.10;;;5.60;99.90;;;;;;5054062;28;20098;-79
2022/03/21 08:40:57;;;;;;;94.47;40.10;;;5.80;99.90;;;;;;5053790;28;20490;-79
2022/03/21 08:43:24;;;;;;;99.03;41.28;;;5.90;99.90;;;;;;5036981;28;20043;-79
2022/03/21 08:45:49;;;;;;;100.57;40.63;;;6.00;99.90;;;;;;5037305;28;20044;-78
2022/03/21 08:48:15;;;;;;;86.00;38.67;;;6.20;99.90;;;;;;5053826;28;20028;-78
2022/03/21 08:50:40;;;;;;;74.07;36.40;;;6.30;99.90;;;;;;5037035;28;20059;-79
2022/03/21 08:53:08;;;;;;;87.03;38.88;;;6.50;99.90;;;;;;5053625;28;20128;-79
2022/03/21 08:55:34;;;;;;;81.25;36.35;;;6.60;99.90;;;;;;5053388;28;20039;-79
2022/03/21 08:57:59;;;;;;;68.43;34.15;;;6.80;99.90;;;;;;5036990;28;20037;-79
2022/03/21 09:00:25;;;;;;;55.13;31.60;;;6.90;99.90;;;;;;5053746;28;20064;-79
2022/03/21 09:02:52;;;;;;;61.15;31.77;;;7.10;99.90;;;;;;5053651;28;20070;-79
2022/03/21 09:05:20;;;;;;;54.00;30.58;;;7.30;99.90;;;;;;5037167;28;20041;-79
2022/03/21 09:07:45;;;;;;;42.83;27.48;;;8.00;99.90;;;;;;5037091;28;20032;-79
2022/03/21 09:10:13;;;;;;;39.85;26.75;;;9.10;99.90;;;;;;5055024;28;20041;-79
2022/03/21 09:12:38;;;;;;;37.08;24.48;;;10.10;99.90;;;;;;5057330;28;20576;-79
2022/03/21 09:15:05;;;;;;;30.00;21.67;;;11.10;99.90;;;;;;5058005;28;20036;-79
2022/03/21 09:17:31;;;;;;;25.58;19.08;;;11.90;99.90;;;;;;5041070;28;20036;-80
2022/03/21 09:19:56;;;;;;;23.85;18.80;;;12.80;99.90;;;;;;5041187;28;20113;-80
2022/03/21 09:22:22;;;;;;;23.30;17.73;;;13.50;99.90;;;;;;5057577;28;20475;-80
2022/03/21 09:24:48;;;;;;;23.08;17.73;;;14.20;99.90;;;;;;5040662;28;20040;-80
2022/03/21 09:27:13;;;;;;;20.90;16.33;;;14.70;99.90;;;;;;5057746;28;20040;-80
2022/03/21 09:29:39;;;;;;;24.05;18.02;;;15.20;99.90;;;;;;5057836;28;20063;-80
2022/03/21 09:32:06;;;;;;;19.55;16.25;;;15.60;99.90;;;;;;5057650;28;20120;-80
2022/03/21 09:34:33;;;;;;;18.63;15.88;;;16.00;99.90;;;;;;5041040;28;20254;-80
2022/03/21 09:37:00;;;;;;;19.95;17.15;;;16.30;99.90;;;;;;5041261;28;20037;-80
2022/03/21 09:39:25;;;;;;;23.35;17.17;;;16.60;99.90;;;;;;5041329;28;20127;-80
2022/03/21 09:41:51;;;;;;;20.27;17.10;;;16.80;99.90;;;;;;5057504;28;20465;-80
2022/03/21 09:44:17;;;;;;;20.92;16.70;;;17.00;99.90;;;;;;5057247;28;20463;-80
2022/03/21 09:46:44;;;;;;;21.23;17.35;;;17.20;99.90;;;;;;5057407;28;20040;-80
2022/03/21 09:49:15;;;;;;;21.45;17.05;;;17.30;99.90;;;;;;5040565;28;20036;-80
2022/03/21 09:51:40;;;;;;;21.85;18.17;;;17.60;99.90;;;;;;5057686;28;20119;-80
2022/03/21 09:54:07;;;;;;;21.35;17.83;;;17.80;99.90;;;;;;5040255;28;20360;-80
2022/03/21 09:56:33;;;;;;;23.80;19.67;;;18.00;99.90;;;;;;5040622;28;20042;-80
2022/03/21 09:59:01;;;;;;;23.65;19.30;;;18.10;99.90;;;;;;5057216;28;20046;-80
2022/03/21 10:01:28;;;;;;;22.15;19.02;;;18.30;99.90;;;;;;5056855;28;20055;-80
2022/03/21 10:03:54;;;;;;;24.02;18.45;;;18.50;99.90;;;;;;5056623;28;20048;-80
2022/03/21 10:06:40;;;;;;;21.58;18.08;;;18.60;99.90;;;;;;5040185;28;20044;-80
2022/03/21 10:09:11;;;;;;;25.63;19.50;;;18.60;99.90;;;;;;5057064;28;20517;-80
2022/03/21 10:11:39;;;;;;;21.52;19.23;;;18.80;99.90;;;;;;5057069;28;20421;-80
2022/03/21 10:14:22;;;;;;;22.80;19.77;;;18.80;99.90;;;;;;5040220;28;20028;-80
2022/03/21 10:16:59;;;;;;;21.98;19.25;;;18.80;96.50;;;;;;5056848;28;20029;-80
2022/03/21 10:19:27;;;;;;;21.48;18.65;;;18.90;99.90;;;;;;5040375;28;20072;-80
2022/03/21 10:22:05;;;;;;;21.98;18.05;;;19.00;99.90;;;;;;5056495;28;20036;-80
2022/03/21 10:25:01;;;;;;;19.95;17.75;;;19.20;99.20;;;;;;5056400;28;20041;-80
2022/03/21 10:27:41;;;;;;;22.40;19.13;;;19.00;97.80;;;;;;5038762;28;20399;-80
2022/03/21 10:30:13;;;;;;;23.42;18.40;;;18.90;99.90;;;;;;5040359;28;20445;-80
2022/03/21 10:32:44;;;;;;;21.25;18.27;;;19.00;99.90;;;;;;5056273;28;20036;-80
2022/03/21 10:35:27;;;;;;;23.05;18.42;;;19.20;99.90;;;;;;5056532;28;20060;-80
2022/03/21 10:37:58;;;;;;;24.17;18.00;;;19.30;90.60;;;;;;5056880;28;20387;-80
2022/03/21 10:40:40;;;;;;;22.08;19.67;;;19.30;95.60;;;;;;5039757;28;20049;-80
2022/03/21 10:43:09;;;;;;;22.00;18.75;;;19.50;93.80;;;;;;5056167;28;20048;-80
2022/03/21 10:45:35;;;;;;;20.30;18.15;;;19.50;94.50;;;;;;5038764;28;20093;-79
2022/03/21 10:48:03;;;;;;;22.98;18.67;;;19.40;92.80;;;;;;5038861;28;20491;-79
2022/03/21 10:50:39;;;;;;;21.35;19.05;;;19.60;91.40;;;;;;5055285;28;20036;-80
2022/03/21 10:53:19;;;;;;;23.48;19.27;;;19.70;88.70;;;;;;5055262;28;20045;-79
2022/03/21 10:56:08;;;;;;;20.75;18.42;;;20.00;81.00;;;;;;5038625;28;20040;-79
2022/03/21 10:58:35;;;;;;;21.40;19.17;;;20.40;85.10;;;;;;5038816;28;20398;-79
2022/03/21 11:01:14;;;;;;;22.98;18.52;;;20.50;84.00;;;;;;5038596;28;20036;-80
2022/03/21 11:03:41;;;;;;;22.92;19.20;;;20.40;68.10;;;;;;5055244;28;20047;-78
2022/03/21 11:06:08;;;;;;;23.15;18.05;;;20.60;74.10;;;;;;5038979;28;20080;-79
2022/03/21 11:08:35;;;;;;;23.75;19.55;;;20.70;67.90;;;;;;5054861;28;20033;-79
2022/03/21 11:11:02;;;;;;;23.38;19.17;;;20.80;74.50;;;;;;5054899;28;20506;-80
2022/03/21 11:13:28;;;;;;;21.67;19.33;;;21.00;74.60;;;;;;5038063;28;20123;-79
2022/03/21 11:15:54;;;;;;;22.20;18.95;;;21.10;73.10;;;;;;5055083;28;20034;-79
2022/03/21 11:18:21;;;;;;;24.85;19.50;;;21.30;69.60;;;;;;5038214;28;20479;-79
2022/03/21 11:20:50;;;;;;;20.77;18.58;;;21.30;67.70;;;;;;5054808;28;20132;-81
2022/03/21 11:23:17;;;;;;;20.85;17.77;;;21.40;67.70;;;;;;5054465;28;20437;-79
2022/03/21 11:25:48;;;;;;;21.50;18.35;;;21.40;58.90;;;;;;5038096;28;20044;-79
2022/03/21 11:28:40;;;;;;;21.60;17.52;;;21.60;60.10;;;;;;5054456;28;20041;-79
2022/03/21 11:31:17;;;;;;;20.83;17.35;;;21.90;54.40;;;;;;5054527;28;20036;-79
2022/03/21 11:34:15;;;;;;;20.45;17.67;;;21.80;58.60;;;;;;5053895;28;20440;-79
2022/03/21 11:36:56;;;;;;;20.58;18.48;;;21.90;53.80;;;;;;5054708;28;20428;-79
2022/03/21 11:39:23;;;;;;;21.15;18.13;;;22.10;55.20;;;;;;5054219;28;20040;-79
2022/03/21 11:42:00;;;;;;;22.20;19.02;;;22.10;56.00;;;;;;5054136;28;20572;-79
2022/03/21 11:44:26;;;;;;;21.95;17.63;;;22.20;55.40;;;;;;5053943;28;20084;-79
2022/03/21 11:46:52;;;;;;;22.23;19.80;;;22.40;52.20;;;;;;5054283;28;20098;-79
2022/03/21 11:49:17;;;;;;;25.08;19.50;;;22.40;47.70;;;;;;5054089;28;20040;-80
2022/03/21 11:51:44;;;;;;;22.35;19.70;;;22.00;51.40;;;;;;5037495;28;20455;-79
2022/03/21 11:54:34;;;;;;;22.58;19.23;;;22.10;54.20;;;;;;5037304;28;20037;-79
2022/03/21 11:57:03;;;;;;;22.00;19.27;;;22.30;54.30;;;;;;5053988;28;20037;-79
2022/03/21 11:59:31;;;;;;;20.52;18.10;;;22.50;55.00;;;;;;5054167;28;20044;-79
2022/03/21 12:01:57;;;;;;;23.63;17.88;;;22.90;55.50;;;;;;5037466;28;20036;-79
2022/03/21 12:04:28;;;;;;;19.98;17.35;;;23.10;54.60;;;;;;5053710;28;20395;-79
2022/03/21 12:07:20;;;;;;;21.77;17.25;;;23.10;49.10;;;;;;5054178;28;20115;-79
2022/03/21 12:09:50;;;;;;;26.67;17.45;;;23.00;50.70;;;;;;5053812;28;20308;-79
2022/03/21 12:12:20;;;;;;;20.65;17.20;;;23.00;52.20;;;;;;5053739;28;20044;-79
2022/03/21 12:14:47;;;;;;;21.80;17.83;;;23.40;50.50;;;;;;5037214;28;20395;-79
2022/03/21 12:17:13;;;;;;;23.52;18.02;;;23.50;45.80;;;;;;5053940;28;20466;-79
2022/03/21 12:20:07;;;;;;;22.30;17.42;;;23.20;46.30;;;;;;5053585;28;20131;-79
2022/03/21 12:22:32;;;;;;;20.75;16.98;;;22.90;49.90;;;;;;5053265;28;20399;-80
2022/03/21 12:25:08;;;;;;;23.65;18.58;;;22.90;50.80;;;;;;5053741;28;20508;-79
2022/03/21 12:27:35;;;;;;;19.50;16.77;;;22.90;50.50;;;;;;5053774;28;20037;-79
2022/03/21 12:30:19;;;;;;;21.58;17.48;;;23.20;50.20;;;;;;5053519;28;20044;-80
2022/03/21 12:33:01;;;;;;;18.52;16.52;;;23.70;47.70;;;;;;5036970;28;20391;-80
2022/03/21 12:35:32;;;;;;;22.85;16.95;;;23.70;45.90;;;;;;5037123;28;20047;-81
2022/03/21 12:38:16;;;;;;;22.38;17.10;;;23.80;47.90;;;;;;5037086;28;20078;-79
2022/03/21 12:40:51;;;;;;;20.27;16.55;;;23.60;46.70;;;;;;5053771;28;20052;-79
2022/03/21 12:43:22;;;;;;;19.00;16.35;;;23.50;48.20;;;;;;5053287;28;20072;-79
2022/03/21 12:45:50;;;;;;;22.15;16.33;;;23.50;47.40;;;;;;5057527;28;20125;-79
2022/03/21 12:48:20;;;;;;;21.60;16.27;;;23.30;48.30;;;;;;5057686;28;20116;-79
2022/03/21 12:50:49;;;;;;;18.65;16.15;;;23.20;47.40;;;;;;5057528;28;20033;-79
2022/03/21 12:53:18;;;;;;;21.45;16.80;;;23.20;48.10;;;;;;5057091;28;20177;-80
2022/03/21 12:55:45;;;;;;;20.98;16.10;;;23.30;48.20;;;;;;5040764;28;20033;-79